Time;durP1;ratioP1;P1;durP2;ratioP2;P2;SDS_P1;SDS_P2;PMS_P1;PMS_P2;Temp;Humidity;BMP_temperature;BMP_pressure;BME280_temperature;BME280_humidity;BME280_pressure;Samples;Min_cycle;Max_cycle;Signal;HPM_P1;HPM_P2
2022/07/08 00:02:02;;;;;;;4.57;3.75;;;17.70;99.90;;;;;;5030656;28;20102;-79
2022/07/08 00:04:28;;;;;;;7.25;3.50;;;17.60;99.90;;;;;;5031256;28;20372;-79
2022/07/08 00:06:54;;;;;;;6.90;3.28;;;17.60;99.90;;;;;;5020585;28;20095;-79
2022/07/08 00:09:21;;;;;;;6.32;3.53;;;17.70;99.90;;;;;;5031814;28;20040;-78
2022/07/08 00:11:47;;;;;;;6.85;3.47;;;17.70;99.90;;;;;;5030215;28;20053;-79
2022/07/08 00:14:13;;;;;;;4.22;3.25;;;17.60;99.90;;;;;;5033074;28;20455;-80
2022/07/08 00:16:40;;;;;;;5.32;3.15;;;17.60;99.90;;;;;;5029397;28;20025;-79
2022/07/08 00:19:07;;;;;;;4.45;3.33;;;17.50;99.90;;;;;;5031291;28;20036;-79
2022/07/08 00:21:34;;;;;;;6.07;3.45;;;17.50;99.90;;;;;;5034698;28;20022;-79
2022/07/08 00:24:00;;;;;;;7.70;3.45;;;17.50;99.90;;;;;;5034627;28;20449;-79
2022/07/08 00:26:26;;;;;;;8.68;3.53;;;17.50;99.90;;;;;;5029532;28;20029;-79
2022/07/08 00:28:52;;;;;;;5.30;3.55;;;17.50;99.90;;;;;;5034008;28;20053;-79
2022/07/08 00:31:17;;;;;;;9.00;3.58;;;17.50;99.90;;;;;;5020250;28;20022;-77
2022/07/08 00:33:43;;;;;;;3.97;3.38;;;17.50;99.90;;;;;;5025767;28;20027;-77
2022/07/08 00:36:09;;;;;;;5.10;3.38;;;17.50;99.90;;;;;;5032697;28;20055;-76
2022/07/08 00:38:35;;;;;;;5.43;3.92;;;17.50;99.90;;;;;;5036277;28;20114;-80
2022/07/08 00:41:00;;;;;;;6.03;3.70;;;17.50;99.90;;;;;;5053353;28;20429;-78
2022/07/08 00:43:41;;;;;;;4.82;3.42;;;17.60;99.90;;;;;;5038830;28;20417;-78
2022/07/08 00:46:08;;;;;;;7.97;3.30;;;17.50;99.90;;;;;;5023548;28;20033;-79
2022/07/08 00:48:34;;;;;;;5.55;3.70;;;17.60;99.90;;;;;;5021076;28;20034;-79
2022/07/08 00:51:04;;;;;;;5.78;3.92;;;17.50;99.90;;;;;;5021544;28;20100;-76
2022/07/08 00:53:32;;;;;;;4.90;3.58;;;17.50;99.90;;;;;;5018281;28;20074;-79
2022/07/08 00:55:59;;;;;;;6.65;3.58;;;17.50;99.90;;;;;;5029844;28;20017;-79
2022/07/08 00:58:25;;;;;;;4.55;3.60;;;17.50;99.90;;;;;;5022165;28;20041;-78
2022/07/08 01:00:53;;;;;;;5.60;3.42;;;17.50;99.90;;;;;;5019521;28;20041;-79
2022/07/08 01:03:19;;;;;;;5.40;3.70;;;17.50;99.90;;;;;;5021659;28;20030;-79
2022/07/08 01:05:45;;;;;;;8.15;3.60;;;17.50;99.90;;;;;;5018925;28;20022;-80
2022/07/08 01:08:11;;;;;;;4.43;3.22;;;17.50;99.90;;;;;;5027410;28;20025;-77
2022/07/08 01:10:37;;;;;;;8.38;3.45;;;17.50;99.90;;;;;;5034759;28;20026;-79
2022/07/08 01:13:04;;;;;;;5.75;4.05;;;17.50;99.90;;;;;;5022663;28;20438;-79
2022/07/08 01:15:30;;;;;;;4.68;3.78;;;17.50;99.90;;;;;;5086121;23;20117;-81
2022/07/08 01:17:56;;;;;;;5.60;3.60;;;17.50;99.90;;;;;;5069116;28;20025;-83
2022/07/08 01:20:22;;;;;;;4.47;3.55;;;17.50;99.90;;;;;;5076332;28;20028;-82
2022/07/08 01:22:48;;;;;;;4.43;3.40;;;17.50;99.90;;;;;;5081362;28;20047;-82
2022/07/08 01:25:14;;;;;;;4.90;3.53;;;17.50;99.90;;;;;;5059133;28;20021;-84
2022/07/08 01:27:41;;;;;;;4.20;3.10;;;17.50;99.90;;;;;;5076117;28;20025;-82
2022/07/08 01:30:07;;;;;;;4.97;3.38;;;17.50;99.90;;;;;;5066297;28;20021;-81
2022/07/08 01:32:37;;;;;;;4.25;3.63;;;17.50;99.90;;;;;;5074624;28;20085;-78
2022/07/08 01:35:04;;;;;;;4.15;3.75;;;17.50;99.90;;;;;;5056600;28;20072;-84
2022/07/08 01:37:30;;;;;;;4.97;3.97;;;17.50;99.90;;;;;;5058140;28;20021;-82
2022/07/08 01:39:56;;;;;;;5.47;3.88;;;17.50;99.90;;;;;;5068624;28;20059;-82
2022/07/08 01:42:22;;;;;;;5.13;4.07;;;17.40;99.90;;;;;;5071839;28;20017;-81
2022/07/08 01:44:48;;;;;;;5.00;3.60;;;17.50;99.90;;;;;;5055773;28;20103;-81
2022/07/08 01:47:14;;;;;;;5.38;3.75;;;17.50;99.90;;;;;;5063646;28;20091;-81
2022/07/08 01:49:40;;;;;;;5.43;3.33;;;17.40;99.90;;;;;;5058676;28;20033;-82
2022/07/08 01:52:07;;;;;;;5.00;3.85;;;17.40;99.90;;;;;;5057724;28;20033;-81
2022/07/08 01:54:34;;;;;;;6.75;3.85;;;17.40;99.90;;;;;;5048338;28;20059;-84
2022/07/08 01:57:15;;;;;;;4.18;3.20;;;17.40;99.90;;;;;;5064853;28;20083;-80
2022/07/08 01:59:46;;;;;;;7.80;3.92;;;17.40;99.90;;;;;;5050088;28;20029;-83
2022/07/08 02:02:13;;;;;;;6.03;3.53;;;17.40;99.90;;;;;;5037882;28;20057;-82
2022/07/08 02:04:40;;;;;;;3.83;3.17;;;17.40;99.90;;;;;;5049398;28;20055;-83
2022/07/08 02:07:07;;;;;;;5.68;3.47;;;17.40;99.90;;;;;;5034200;28;20466;-79
2022/07/08 02:09:33;;;;;;;8.68;3.50;;;17.40;99.90;;;;;;5067232;28;20116;-80
2022/07/08 02:15:11;;;;;;;2.97;2.70;;;17.40;99.90;;;;;;5055169;28;20485;-79
2022/07/08 02:17:40;;;;;;;3.97;2.70;;;17.40;99.90;;;;;;5049121;28;20101;-80
2022/07/08 02:20:08;;;;;;;3.60;2.60;;;17.40;99.90;;;;;;5061275;28;20021;-80
2022/07/08 02:22:34;;;;;;;3.45;2.90;;;17.40;99.90;;;;;;5054354;28;20021;-81
2022/07/08 02:25:00;;;;;;;6.35;2.92;;;17.40;99.90;;;;;;5062093;28;20084;-80
2022/07/08 02:27:26;;;;;;;3.20;2.72;;;17.40;99.90;;;;;;5075217;28;20043;-81
2022/07/08 02:29:52;;;;;;;5.43;3.40;;;17.40;99.90;;;;;;5073169;28;20477;-78
2022/07/08 02:32:18;;;;;;;4.20;2.92;;;17.40;99.90;;;;;;5054949;28;20060;-79
2022/07/08 02:34:44;;;;;;;3.53;2.72;;;17.40;99.90;;;;;;5049604;28;20026;-79
2022/07/08 02:37:10;;;;;;;3.20;2.90;;;17.40;99.90;;;;;;5057618;28;20029;-79
2022/07/08 02:39:36;;;;;;;3.65;2.83;;;17.40;99.90;;;;;;5051350;28;20029;-78
2022/07/08 02:42:02;;;;;;;5.38;2.92;;;17.40;99.90;;;;;;5056552;28;20021;-79
2022/07/08 02:44:28;;;;;;;5.40;3.00;;;17.40;99.90;;;;;;5046871;28;20085;-80
2022/07/08 02:46:54;;;;;;;4.00;2.65;;;17.30;99.90;;;;;;5063259;28;20041;-78
2022/07/08 02:49:20;;;;;;;5.75;2.72;;;17.30;99.90;;;;;;5060983;28;20040;-80
2022/07/08 02:51:46;;;;;;;6.30;3.03;;;17.30;99.90;;;;;;5059895;28;20029;-80
2022/07/08 02:54:11;;;;;;;3.83;3.17;;;17.20;99.90;;;;;;5067131;28;20017;-79
2022/07/08 02:56:37;;;;;;;5.53;3.00;;;17.20;99.90;;;;;;5069555;28;20032;-80
2022/07/08 02:59:04;;;;;;;4.10;2.70;;;17.20;99.90;;;;;;5049240;28;20028;-80
2022/07/08 03:01:30;;;;;;;3.55;2.80;;;17.20;99.90;;;;;;5054667;28;20040;-80
2022/07/08 03:03:56;;;;;;;3.10;2.75;;;17.20;99.90;;;;;;5068038;28;20017;-79
2022/07/08 03:06:22;;;;;;;5.03;2.70;;;17.10;99.90;;;;;;5072466;28;20019;-80
2022/07/08 03:08:47;;;;;;;4.53;2.70;;;17.10;99.90;;;;;;5066986;28;20036;-81
2022/07/08 03:11:13;;;;;;;3.70;3.17;;;17.10;99.90;;;;;;5058081;28;20024;-83
2022/07/08 03:13:39;;;;;;;6.03;2.88;;;17.10;99.90;;;;;;5071810;28;20017;-84
2022/07/08 03:16:06;;;;;;;2.90;2.53;;;17.10;99.90;;;;;;5077766;28;20029;-83
2022/07/08 03:18:33;;;;;;;4.50;2.72;;;17.10;99.90;;;;;;5075219;28;20049;-84
2022/07/08 03:20:59;;;;;;;3.75;2.90;;;17.10;99.90;;;;;;5065028;28;20092;-84
2022/07/08 03:23:25;;;;;;;5.38;2.85;;;17.10;99.90;;;;;;5073190;28;20077;-84
2022/07/08 03:25:51;;;;;;;3.20;2.92;;;17.20;99.90;;;;;;5063636;28;20165;-84
2022/07/08 03:28:18;;;;;;;3.92;3.22;;;17.20;99.90;;;;;;5048835;28;20040;-80
2022/07/08 03:30:43;;;;;;;3.92;2.80;;;17.20;99.90;;;;;;5055536;28;20040;-82
2022/07/08 03:33:09;;;;;;;3.63;2.72;;;17.20;99.90;;;;;;5047237;28;20397;-82
2022/07/08 03:35:35;;;;;;;3.45;2.80;;;17.20;99.90;;;;;;5046891;28;20025;-84
2022/07/08 03:38:01;;;;;;;3.08;2.72;;;17.30;99.90;;;;;;5046090;28;20029;-81
2022/07/08 03:43:11;;;;;;;2.75;2.50;;;17.30;99.90;;;;;;5068173;28;20028;-82
2022/07/08 03:45:36;;;;;;;3.63;2.97;;;17.30;99.90;;;;;;5066306;28;20171;-81
2022/07/08 03:48:03;;;;;;;3.42;2.72;;;17.40;99.90;;;;;;5057919;28;20010;-90
2022/07/08 03:50:29;;;;;;;3.47;2.53;;;17.40;99.90;;;;;;5045066;28;20120;-80
2022/07/08 03:52:56;;;;;;;3.10;2.80;;;17.40;99.90;;;;;;5064108;28;20051;-80
2022/07/08 03:55:23;;;;;;;4.55;2.80;;;17.40;99.90;;;;;;5047923;28;20021;-81
2022/07/08 03:57:49;;;;;;;3.92;2.90;;;17.50;99.90;;;;;;5051660;28;20025;-81
2022/07/08 04:00:15;;;;;;;4.55;3.00;;;17.60;99.90;;;;;;5053263;28;20029;-86
2022/07/08 04:02:41;;;;;;;5.05;2.95;;;17.60;99.90;;;;;;5041702;28;20115;-82
2022/07/08 04:05:07;;;;;;;3.85;2.58;;;17.70;99.90;;;;;;5051566;28;20028;-85
2022/07/08 04:07:34;;;;;;;3.03;2.67;;;17.80;99.90;;;;;;5201262;22;20057;-84
2022/07/08 04:10:00;;;;;;;3.05;2.78;;;17.80;99.90;;;;;;5074106;28;20043;-83
2022/07/08 04:12:26;;;;;;;3.38;2.45;;;17.90;99.90;;;;;;5076527;28;20033;-82
2022/07/08 04:14:52;;;;;;;3.92;2.25;;;18.00;99.90;;;;;;5058998;28;20056;-83
2022/07/08 04:17:17;;;;;;;5.05;2.33;;;18.00;99.90;;;;;;5044955;28;20124;-82
2022/07/08 04:19:43;;;;;;;2.90;2.00;;;18.10;99.90;;;;;;5052549;28;20102;-81
2022/07/08 04:22:09;;;;;;;3.25;2.10;;;18.10;99.90;;;;;;5049702;28;20124;-81
2022/07/08 04:24:35;;;;;;;3.63;2.20;;;18.10;99.90;;;;;;5055892;28;20018;-83
2022/07/08 04:27:01;;;;;;;2.65;2.42;;;18.10;99.90;;;;;;5058880;28;20172;-81
2022/07/08 04:29:26;;;;;;;2.90;2.30;;;18.10;99.90;;;;;;5047411;28;20029;-81
2022/07/08 04:31:52;;;;;;;4.43;2.10;;;18.10;99.90;;;;;;5052278;28;20053;-80
2022/07/08 04:34:18;;;;;;;2.83;1.92;;;18.10;99.90;;;;;;5048765;28;20039;-82
2022/07/08 04:36:44;;;;;;;2.35;2.00;;;18.20;99.90;;;;;;5047860;28;20099;-83
2022/07/08 04:39:10;;;;;;;2.60;2.05;;;18.20;99.90;;;;;;5047621;28;20041;-82
2022/07/08 04:41:37;;;;;;;2.85;1.80;;;18.20;99.90;;;;;;5053501;28;20532;-83
2022/07/08 04:44:03;;;;;;;2.53;2.10;;;18.20;99.90;;;;;;5049278;28;20020;-82
2022/07/08 04:46:29;;;;;;;4.40;2.10;;;18.30;99.90;;;;;;5045597;28;20056;-81
2022/07/08 04:48:55;;;;;;;4.88;2.17;;;18.20;99.90;;;;;;5047961;28;20029;-84
2022/07/08 04:51:22;;;;;;;2.38;1.70;;;18.30;99.90;;;;;;5044206;28;20036;-83
2022/07/08 04:53:47;;;;;;;3.30;1.80;;;18.20;99.90;;;;;;5043291;28;20053;-82
2022/07/08 04:56:13;;;;;;;4.68;2.05;;;18.20;99.90;;;;;;5050551;28;20108;-83
2022/07/08 04:58:39;;;;;;;2.38;1.73;;;18.10;99.90;;;;;;5053537;28;20025;-82
2022/07/08 05:01:05;;;;;;;2.03;1.67;;;18.20;99.90;;;;;;5052699;28;20059;-80
2022/07/08 05:03:31;;;;;;;1.50;1.40;;;18.20;99.90;;;;;;5059197;28;20021;-80
2022/07/08 05:05:56;;;;;;;1.60;1.50;;;18.20;99.90;;;;;;5051370;28;20039;-84
2022/07/08 05:08:22;;;;;;;3.92;1.30;;;18.20;99.90;;;;;;5046669;28;20041;-83
2022/07/08 05:10:48;;;;;;;2.63;1.08;;;18.30;99.90;;;;;;5047299;28;20033;-80
2022/07/08 05:13:14;;;;;;;4.80;1.33;;;18.30;99.90;;;;;;5044737;28;20032;-84
2022/07/08 05:15:40;;;;;;;5.07;1.20;;;18.40;99.90;;;;;;5044724;28;20464;-83
2022/07/08 05:18:06;;;;;;;2.60;1.10;;;18.30;99.90;;;;;;5052976;28;20092;-82
2022/07/08 05:20:32;;;;;;;4.88;1.10;;;18.40;99.90;;;;;;5053388;28;20029;-80
2022/07/08 05:22:57;;;;;;;1.95;0.80;;;18.30;99.90;;;;;;5045020;28;20408;-82
2022/07/08 05:25:24;;;;;;;1.65;0.90;;;18.40;99.90;;;;;;5059001;28;20021;-80
2022/07/08 05:27:50;;;;;;;3.13;0.90;;;18.40;99.90;;;;;;5061117;28;20036;-81
2022/07/08 05:30:16;;;;;;;1.52;0.77;;;18.30;99.90;;;;;;5050370;28;20034;-80
2022/07/08 05:32:42;;;;;;;4.72;0.70;;;18.30;99.90;;;;;;5041657;28;20026;-79
2022/07/08 05:35:09;;;;;;;2.85;0.77;;;18.10;99.90;;;;;;5055433;28;20499;-80
2022/07/08 05:37:38;;;;;;;2.35;0.60;;;18.20;99.90;;;;;;5057968;28;20393;-80
2022/07/08 05:40:07;;;;;;;5.85;0.90;;;18.10;99.90;;;;;;5057574;28;20065;-81
2022/07/08 05:42:33;;;;;;;3.42;0.40;;;18.00;99.90;;;;;;5069632;28;20052;-86
2022/07/08 05:44:59;;;;;;;1.42;0.60;;;17.90;99.90;;;;;;5051988;28;20037;-83
2022/07/08 05:47:25;;;;;;;0.65;0.55;;;17.90;99.90;;;;;;5051773;28;20030;-83
2022/07/08 05:49:51;;;;;;;1.75;0.32;;;17.80;99.90;;;;;;5036936;28;20029;-83
2022/07/08 05:52:18;;;;;;;7.47;0.70;;;17.80;99.90;;;;;;5031246;28;20022;-84
2022/07/08 05:54:45;;;;;;;1.80;0.77;;;17.80;99.90;;;;;;5033017;28;20075;-83
2022/07/08 05:57:12;;;;;;;4.13;0.60;;;17.70;99.90;;;;;;5033100;28;20017;-84
2022/07/08 05:59:38;;;;;;;0.93;0.60;;;17.70;99.90;;;;;;5030705;28;20053;-84
2022/07/08 06:02:04;;;;;;;3.33;0.63;;;17.70;99.90;;;;;;5031352;28;20020;-84
2022/07/08 06:04:30;;;;;;;1.23;0.60;;;17.70;99.90;;;;;;5041656;28;20112;-86
2022/07/08 06:06:56;;;;;;;0.98;0.63;;;17.90;99.90;;;;;;5043133;28;20045;-84
2022/07/08 06:09:22;;;;;;;9.10;0.90;;;17.80;99.90;;;;;;5040638;28;20030;-84
2022/07/08 06:11:48;;;;;;;1.95;0.90;;;17.60;99.90;;;;;;5043046;28;20466;-83
2022/07/08 06:14:14;;;;;;;2.47;0.95;;;17.50;99.90;;;;;;5044891;28;20033;-80
2022/07/08 06:16:40;;;;;;;3.75;1.00;;;17.50;99.90;;;;;;5043487;28;20105;-81
2022/07/08 06:19:06;;;;;;;2.45;1.10;;;17.50;99.90;;;;;;5051507;28;20036;-82
2022/07/08 06:21:32;;;;;;;3.65;0.90;;;17.60;99.90;;;;;;5053565;28;20021;-84
2022/07/08 06:23:58;;;;;;;3.83;1.05;;;17.60;99.90;;;;;;5052243;28;20040;-83
2022/07/08 06:26:24;;;;;;;6.10;1.20;;;17.70;99.90;;;;;;5047207;28;20022;-80
2022/07/08 06:28:50;;;;;;;6.20;1.27;;;17.80;99.90;;;;;;5049341;28;20025;-83
2022/07/08 06:31:16;;;;;;;5.10;1.30;;;17.90;99.90;;;;;;5044419;28;20052;-85
2022/07/08 06:33:42;;;;;;;4.38;1.33;;;18.00;99.90;;;;;;5053987;28;20037;-84
2022/07/08 06:36:08;;;;;;;4.40;1.50;;;17.90;99.90;;;;;;5052448;28;20027;-82
2022/07/08 06:38:34;;;;;;;2.38;1.42;;;17.80;99.90;;;;;;5052595;28;20041;-83
2022/07/08 06:40:59;;;;;;;3.55;1.50;;;17.70;99.90;;;;;;5051197;28;20030;-81
2022/07/08 06:43:25;;;;;;;2.67;1.30;;;17.60;99.90;;;;;;5052757;28;20114;-82
2022/07/08 06:45:51;;;;;;;14.13;1.60;;;17.60;99.90;;;;;;5052270;28;20085;-82
2022/07/08 06:48:17;;;;;;;6.18;1.80;;;17.50;99.90;;;;;;5047709;28;20111;-85
2022/07/08 06:50:43;;;;;;;3.90;1.70;;;17.40;99.90;;;;;;5027444;28;20026;-82
2022/07/08 06:53:09;;;;;;;11.07;2.42;;;17.50;99.90;;;;;;5024716;28;20037;-84
2022/07/08 06:55:35;;;;;;;8.63;2.03;;;17.60;99.90;;;;;;5023405;28;20037;-83
2022/07/08 06:58:00;;;;;;;7.43;2.47;;;17.70;99.90;;;;;;5024253;28;20030;-85
2022/07/08 07:00:27;;;;;;;6.45;1.83;;;17.70;99.90;;;;;;5022750;28;20026;-84
2022/07/08 07:02:54;;;;;;;8.52;2.97;;;17.70;99.90;;;;;;5022874;28;20030;-83
2022/07/08 07:05:20;;;;;;;6.53;2.13;;;17.70;99.90;;;;;;5022461;28;20021;-83
2022/07/08 07:07:46;;;;;;;8.70;2.08;;;17.70;99.90;;;;;;5021528;28;20022;-82
2022/07/08 07:10:12;;;;;;;10.88;2.50;;;17.70;99.90;;;;;;5020648;28;20042;-81
2022/07/08 07:12:38;;;;;;;6.80;2.10;;;17.60;99.90;;;;;;5022306;28;20034;-82
2022/07/08 07:15:04;;;;;;;4.22;2.03;;;17.60;99.90;;;;;;5065429;23;20037;-77
2022/07/08 07:17:30;;;;;;;4.50;2.05;;;17.60;99.90;;;;;;5080889;28;20048;-78
2022/07/08 07:19:58;;;;;;;6.18;2.63;;;17.60;99.90;;;;;;5080614;28;20495;-79
2022/07/08 07:22:24;;;;;;;9.60;2.50;;;17.80;99.90;;;;;;5081834;28;20128;-80
2022/07/08 07:24:50;;;;;;;15.85;3.50;;;17.90;99.90;;;;;;5080995;28;20356;-77
2022/07/08 07:27:18;;;;;;;12.95;2.50;;;18.00;99.90;;;;;;5079840;28;20538;-79
2022/07/08 07:29:44;;;;;;;9.10;2.20;;;18.20;99.90;;;;;;5082852;28;20025;-77
2022/07/08 07:32:09;;;;;;;7.22;2.30;;;18.40;99.90;;;;;;5082821;28;20117;-80
2022/07/08 07:34:35;;;;;;;9.05;2.67;;;18.40;99.90;;;;;;5076569;28;20020;-79
2022/07/08 07:37:01;;;;;;;6.97;2.85;;;18.20;99.90;;;;;;5077075;28;20035;-77
2022/07/08 07:39:27;;;;;;;6.60;2.67;;;18.40;99.90;;;;;;5073872;28;20040;-79
2022/07/08 07:41:52;;;;;;;11.98;2.63;;;18.40;99.90;;;;;;5075846;28;20047;-78
2022/07/08 07:44:18;;;;;;;11.98;2.90;;;18.40;99.90;;;;;;5071523;28;20021;-78
2022/07/08 07:46:44;;;;;;;14.30;3.60;;;18.30;99.90;;;;;;5056926;28;20096;-79
2022/07/08 07:49:10;;;;;;;8.38;2.75;;;18.30;99.90;;;;;;5063792;28;20021;-77
2022/07/08 07:51:37;;;;;;;6.22;2.40;;;18.10;99.90;;;;;;5080158;28;20041;-77
2022/07/08 07:54:03;;;;;;;9.27;3.05;;;18.10;99.90;;;;;;5070609;28;20841;-78
2022/07/08 07:56:28;;;;;;;14.40;3.35;;;18.00;99.90;;;;;;5077837;28;20013;-78
2022/07/08 07:58:54;;;;;;;7.00;3.15;;;18.10;99.90;;;;;;5077077;28;20084;-78
2022/07/08 08:01:20;;;;;;;12.85;2.95;;;18.30;99.90;;;;;;5079611;28;20036;-75
2022/07/08 08:03:46;;;;;;;8.27;2.83;;;18.40;99.90;;;;;;5063224;28;20021;-78
2022/07/08 08:06:12;;;;;;;17.88;2.95;;;18.60;99.90;;;;;;5045803;28;20083;-79
2022/07/08 08:08:37;;;;;;;11.77;3.17;;;18.70;99.90;;;;;;5061948;28;20021;-77
2022/07/08 08:11:03;;;;;;;8.55;2.60;;;18.80;99.90;;;;;;5064437;28;20040;-79
2022/07/08 08:13:29;;;;;;;10.48;3.22;;;19.00;99.90;;;;;;5058041;28;20029;-79
2022/07/08 08:15:55;;;;;;;7.47;2.83;;;19.20;99.90;;;;;;5059156;28;20152;-79
2022/07/08 08:18:21;;;;;;;7.50;3.10;;;18.90;99.90;;;;;;5063432;28;20032;-79
2022/07/08 08:20:47;;;;;;;9.80;2.83;;;18.90;99.90;;;;;;5081537;28;20438;-78
2022/07/08 08:23:13;;;;;;;7.65;2.65;;;18.70;99.90;;;;;;5082416;28;20024;-80
2022/07/08 08:25:39;;;;;;;10.75;3.10;;;18.60;99.90;;;;;;5084459;28;20060;-78
2022/07/08 08:28:05;;;;;;;8.60;2.88;;;18.90;99.90;;;;;;5083331;28;20365;-78
2022/07/08 08:30:31;;;;;;;5.15;2.40;;;18.90;99.90;;;;;;5083526;28;20036;-77
2022/07/08 08:32:57;;;;;;;6.88;2.80;;;19.00;99.90;;;;;;5086436;28;20059;-78
2022/07/08 08:35:24;;;;;;;11.20;2.80;;;18.90;99.90;;;;;;5090106;28;20048;-78
2022/07/08 08:37:50;;;;;;;8.93;2.78;;;18.60;99.90;;;;;;5089787;28;20032;-78
2022/07/08 08:40:15;;;;;;;8.20;2.60;;;18.40;99.90;;;;;;5085339;28;20029;-79
2022/07/08 08:42:42;;;;;;;11.35;2.80;;;18.50;99.90;;;;;;5080343;28;20135;-79
2022/07/08 08:45:09;;;;;;;7.43;3.00;;;18.50;99.90;;;;;;5083406;28;20036;-78
2022/07/08 08:47:36;;;;;;;5.47;2.35;;;18.50;99.90;;;;;;5083695;28;20028;-80
2022/07/08 08:52:50;;;;;;;5.55;2.60;;;18.50;99.90;;;;;;5074947;28;20100;-78
2022/07/08 08:55:37;;;;;;;6.13;2.15;;;18.50;99.90;;;;;;5061683;28;20018;-79
2022/07/08 08:58:05;;;;;;;6.15;2.30;;;18.20;99.90;;;;;;5060682;28;20052;-79
2022/07/08 09:00:33;;;;;;;4.47;2.55;;;18.10;99.90;;;;;;5062252;28;20216;-80
2022/07/08 09:03:00;;;;;;;6.15;2.20;;;18.20;99.90;;;;;;5062830;28;20036;-80
2022/07/08 09:05:26;;;;;;;9.45;2.35;;;18.30;99.90;;;;;;5057694;28;20017;-79
2022/07/08 09:07:53;;;;;;;9.00;2.88;;;18.30;99.90;;;;;;5060144;28;20044;-81
2022/07/08 09:10:19;;;;;;;11.57;3.20;;;18.20;99.90;;;;;;5081884;28;20053;-86
2022/07/08 09:13:11;;;;;;;9.20;2.92;;;18.40;99.90;;;;;;5085053;28;20028;-85
2022/07/08 09:15:40;;;;;;;10.20;3.30;;;18.40;99.90;;;;;;5083264;28;20060;-85
2022/07/08 09:18:08;;;;;;;11.18;3.50;;;18.40;99.90;;;;;;5084045;28;20034;-85
2022/07/08 09:20:48;;;;;;;14.63;3.05;;;18.50;99.90;;;;;;5091450;28;20036;-88
2022/07/08 09:23:18;;;;;;;13.25;3.03;;;18.40;99.90;;;;;;5098123;28;20037;-85
2022/07/08 09:25:52;;;;;;;6.65;2.88;;;18.20;99.90;;;;;;5097144;28;20036;-88
2022/07/08 09:28:32;;;;;;;17.60;3.42;;;18.20;99.90;;;;;;5097068;28;20017;-86
2022/07/08 09:31:00;;;;;;;10.20;3.58;;;18.10;99.90;;;;;;5079889;28;20036;-86
2022/07/08 09:33:27;;;;;;;12.43;3.30;;;18.10;99.90;;;;;;5095055;28;20020;-87
2022/07/08 09:36:00;;;;;;;11.50;3.30;;;18.10;99.90;;;;;;5099745;28;20020;-85
2022/07/08 09:38:27;;;;;;;6.97;3.60;;;17.90;99.90;;;;;;5089586;28;20452;-86
2022/07/08 09:40:58;;;;;;;10.20;3.75;;;17.80;99.90;;;;;;5074697;28;20028;-86
2022/07/08 09:43:25;;;;;;;11.50;3.95;;;17.70;99.90;;;;;;5091412;28;20039;-86
2022/07/08 09:45:51;;;;;;;14.98;4.63;;;17.80;99.90;;;;;;5091507;28;20021;-86
2022/07/08 09:48:17;;;;;;;6.97;4.10;;;17.90;99.90;;;;;;5087077;28;20082;-87
2022/07/08 09:50:47;;;;;;;13.88;4.93;;;18.00;99.90;;;;;;5089506;28;20063;-87
2022/07/08 09:53:24;;;;;;;12.02;4.25;;;18.20;99.90;;;;;;5090184;28;20031;-87
2022/07/08 09:55:53;;;;;;;11.70;4.05;;;18.40;99.90;;;;;;5092146;28;20048;-88
2022/07/08 09:58:21;;;;;;;12.48;4.60;;;18.30;99.90;;;;;;5092560;28;20043;-86
2022/07/08 10:00:49;;;;;;;17.52;4.95;;;18.30;99.90;;;;;;5078810;28;20089;-87
2022/07/08 10:03:15;;;;;;;11.38;4.25;;;18.30;99.90;;;;;;5059396;28;20041;-87
2022/07/08 10:05:42;;;;;;;9.00;4.38;;;18.40;99.90;;;;;;5075879;28;20028;-85
2022/07/08 10:08:09;;;;;;;19.65;4.93;;;18.40;99.90;;;;;;5075929;28;20062;-87
2022/07/08 10:10:36;;;;;;;8.65;4.57;;;18.30;99.90;;;;;;5083245;28;20029;-87
2022/07/08 10:13:03;;;;;;;11.95;3.72;;;18.40;99.90;;;;;;5082444;28;20021;-87
2022/07/08 10:15:33;;;;;;;11.80;4.40;;;18.40;99.90;;;;;;5082770;28;20040;-87
2022/07/08 10:18:22;;;;;;;14.45;4.60;;;18.50;99.90;;;;;;5079237;28;20043;-88
2022/07/08 10:20:51;;;;;;;12.27;4.10;;;18.40;99.90;;;;;;5081571;28;20067;-87
2022/07/08 10:23:24;;;;;;;9.30;4.10;;;18.50;99.90;;;;;;5082553;28;20037;-86
2022/07/08 10:25:51;;;;;;;7.78;4.55;;;18.60;99.90;;;;;;5083527;28;20017;-86
2022/07/08 10:28:17;;;;;;;9.15;3.90;;;18.70;99.90;;;;;;5082912;28;20028;-85
2022/07/08 10:30:46;;;;;;;9.55;4.45;;;18.60;99.90;;;;;;5083243;28;20047;-86
2022/07/08 10:33:18;;;;;;;18.10;4.00;;;18.50;99.90;;;;;;5083005;28;20032;-86
2022/07/08 10:36:04;;;;;;;8.60;3.80;;;18.70;99.90;;;;;;5062401;28;20021;-86
2022/07/08 10:38:39;;;;;;;10.88;3.60;;;18.70;99.90;;;;;;5080922;28;20032;-87
2022/07/08 10:41:17;;;;;;;13.38;4.05;;;18.80;99.90;;;;;;5083746;28;20071;-86
2022/07/08 10:43:53;;;;;;;11.82;4.07;;;18.70;99.90;;;;;;5091440;28;20021;-85
2022/07/08 10:46:24;;;;;;;15.63;4.55;;;18.60;99.90;;;;;;5094631;28;20037;-87
2022/07/08 10:48:51;;;;;;;11.48;4.07;;;18.50;99.90;;;;;;5095920;28;20028;-88
2022/07/08 10:51:20;;;;;;;13.07;4.43;;;18.50;99.90;;;;;;5095656;28;20024;-85
2022/07/08 10:53:52;;;;;;;8.93;3.85;;;18.50;99.90;;;;;;5087819;28;20059;-85
2022/07/08 10:56:49;;;;;;;12.57;4.30;;;18.60;99.90;;;;;;5085732;28;20029;-83
2022/07/08 10:59:19;;;;;;;10.82;3.75;;;18.80;99.90;;;;;;5092444;28;20024;-87
2022/07/08 11:02:03;;;;;;;13.60;3.95;;;19.10;99.90;;;;;;5085089;28;20046;-86
2022/07/08 11:04:38;;;;;;;17.52;4.38;;;19.30;99.90;;;;;;5090489;28;20017;-85
2022/07/08 11:07:29;;;;;;;11.13;3.78;;;19.20;99.90;;;;;;5097333;28;20044;-87
2022/07/08 11:10:01;;;;;;;21.58;4.60;;;19.00;99.90;;;;;;5096727;28;20048;-86
2022/07/08 11:12:47;;;;;;;11.38;4.25;;;19.00;99.90;;;;;;5096874;28;20059;-88
2022/07/08 11:15:17;;;;;;;13.52;4.20;;;19.00;99.90;;;;;;5096996;28;20101;-88
2022/07/08 11:17:46;;;;;;;11.63;3.90;;;18.90;99.90;;;;;;5097809;28;20028;-89
2022/07/08 11:20:14;;;;;;;11.70;3.80;;;19.00;99.90;;;;;;5097259;28;20029;-88
2022/07/08 11:22:42;;;;;;;14.63;4.28;;;18.90;99.90;;;;;;5090060;28;20016;-84
2022/07/08 11:25:16;;;;;;;9.43;3.55;;;18.80;99.90;;;;;;5075138;28;20009;-85
2022/07/08 11:27:43;;;;;;;12.95;3.85;;;18.80;99.90;;;;;;5068400;28;20049;-85
2022/07/08 11:30:13;;;;;;;9.00;4.50;;;18.90;99.90;;;;;;5073466;28;20067;-85
2022/07/08 11:32:41;;;;;;;13.57;4.35;;;18.90;99.90;;;;;;5071590;28;20049;-86
2022/07/08 11:35:08;;;;;;;12.05;4.18;;;19.20;99.90;;;;;;5070323;28;20065;-85
2022/07/08 11:37:44;;;;;;;12.57;4.15;;;19.40;99.90;;;;;;5075359;28;20057;-87
2022/07/08 11:40:11;;;;;;;11.07;4.15;;;19.80;99.90;;;;;;5073002;28;20041;-85
2022/07/08 11:42:38;;;;;;;9.23;3.83;;;20.00;99.90;;;;;;5072336;28;20029;-88
2022/07/08 11:45:06;;;;;;;12.23;4.90;;;20.00;99.90;;;;;;5064114;28;20036;-88
2022/07/08 11:47:32;;;;;;;6.47;3.15;;;20.00;99.90;;;;;;5074528;28;20097;-87
2022/07/08 11:49:59;;;;;;;7.18;3.42;;;19.90;99.90;;;;;;5071790;28;20029;-88
2022/07/08 11:52:27;;;;;;;9.80;3.70;;;19.90;99.90;;;;;;5076062;28;20052;-87
2022/07/08 11:54:54;;;;;;;14.00;4.30;;;20.20;99.90;;;;;;5077610;28;20017;-85
2022/07/08 11:57:20;;;;;;;10.07;3.78;;;20.30;99.90;;;;;;5093138;28;20024;-88
2022/07/08 11:59:47;;;;;;;13.00;3.78;;;20.20;99.90;;;;;;5083660;28;20021;-89
2022/07/08 12:02:18;;;;;;;9.77;3.28;;;20.30;99.90;;;;;;5098537;28;20016;-90
2022/07/08 12:04:49;;;;;;;10.45;3.30;;;20.20;99.90;;;;;;5084435;28;20016;-90
2022/07/08 12:07:27;;;;;;;9.45;3.60;;;19.90;99.90;;;;;;5079000;28;20051;-88
2022/07/08 12:09:58;;;;;;;9.77;3.40;;;19.60;99.90;;;;;;5075822;28;20056;-87
2022/07/08 12:12:26;;;;;;;9.00;3.30;;;19.40;99.90;;;;;;5072819;28;20338;-87
2022/07/08 12:14:53;;;;;;;14.20;3.58;;;19.20;99.90;;;;;;5065156;28;20025;-89
2022/07/08 12:17:27;;;;;;;12.43;3.78;;;19.10;99.90;;;;;;5063989;28;20039;-90
2022/07/08 12:19:55;;;;;;;17.10;3.60;;;19.00;99.90;;;;;;5074507;28;20029;-88
2022/07/08 12:22:48;;;;;;;12.05;3.55;;;19.00;99.90;;;;;;5083687;28;20179;-86
2022/07/08 12:25:17;;;;;;;11.30;2.90;;;19.00;99.90;;;;;;5090674;28;20111;-88
2022/07/08 12:27:43;;;;;;;11.48;3.55;;;19.00;99.90;;;;;;5075649;28;20013;-86
2022/07/08 12:30:10;;;;;;;5.88;3.22;;;18.90;99.90;;;;;;5067701;28;20052;-89
2022/07/08 12:32:41;;;;;;;4.95;3.38;;;18.90;99.90;;;;;;5067973;28;20021;-89
2022/07/08 12:35:08;;;;;;;7.78;3.78;;;19.00;99.90;;;;;;5066264;28;20032;-88
2022/07/08 12:37:34;;;;;;;8.73;3.30;;;19.10;99.90;;;;;;5068201;28;20025;-87
2022/07/08 12:40:16;;;;;;;5.38;3.05;;;19.30;99.90;;;;;;5078322;28;20058;-88
2022/07/08 12:42:42;;;;;;;7.40;3.17;;;19.40;99.90;;;;;;5088368;28;20025;-88
2022/07/08 12:45:16;;;;;;;5.75;3.03;;;19.40;99.90;;;;;;5072440;28;20016;-88
2022/07/08 12:47:44;;;;;;;9.30;3.90;;;19.50;99.90;;;;;;5088639;28;20119;-87
2022/07/08 12:50:10;;;;;;;7.78;3.53;;;19.40;99.90;;;;;;5065897;28;20530;-88
2022/07/08 12:52:36;;;;;;;8.85;3.97;;;19.40;99.90;;;;;;5067766;28;20036;-89
2022/07/08 12:55:01;;;;;;;9.52;3.60;;;19.40;99.90;;;;;;5087836;28;20034;-88
2022/07/08 12:57:27;;;;;;;10.77;3.80;;;19.40;99.90;;;;;;5071858;28;20048;-86